Kingsville, Texas
Current Conditions -  °F | °C
As of 8:56 PM on Thursday 27 Nov 2014 (Local Time) from KNQI Reporting Station
Clear Clear  
Wind Chill: 58°   Ceiling: Unl
Heat Index: 58°   Visibility: 10mi
Dew Point: 57°   Wind: 7mph
Humidity: 97%   Direction: 60°ENE
Pressure: 30.4"   Gusts: NA
Location:  27.52°N, 97.85°W
Report Text: KNQI 280256Z AUTO 06006KT 10SM CLR 14/14 A3040 RMK AO2 SLP290 T01440139 51007
Loading
Personal Weather Stations






























Interactive Weather Map New forecast layout! Learn more

10-Day Weather Forecast

Advertisements
Track Severe Weather on mobile